Stanhope, New Jersey
Current Conditions -  °F | °C
As of 3:55 AM on Thursday 23 Oct 2014 (Local Time) from KMMU Reporting Station
Overcast Overcast  
Wind Chill: 13°   Ceiling: 2000
Heat Index: 13°   Visibility: 10mi
Dew Point:   Wind: 12mph
Humidity: 72%   Direction: 10°N
Pressure: 29.73"   Gusts: 23mph
Location:  40.9°N, 74.71°W
Report Text: KMMU 230755Z AUTO 01010G20KT 10SM OVC020 13/08 A2973 RMK AO2
Loading
Personal Weather Stations






























Interactive Weather Map
Tropical Storm Tracking
New forecast layout! Learn more

10-Day Weather Forecast

Advertisements
Track Severe Weather on mobile